createdAt,value
2023-01-29T00:00:08.840Z,-3.71
2023-01-29T00:01:09.728Z,-3.71
2023-01-29T00:02:10.728Z,-3.71
2023-01-29T00:03:11.667Z,-3.69
2023-01-29T00:04:12.517Z,-3.69
2023-01-29T00:05:27.012Z,-3.71
2023-01-29T00:06:15.174Z,-3.69
2023-01-29T00:07:15.080Z,-3.71
2023-01-29T00:08:15.637Z,-3.71
2023-01-29T00:09:16.527Z,-3.71
2023-01-29T00:10:17.847Z,-3.69
2023-01-29T00:11:18.280Z,-3.69
2023-01-29T00:12:19.164Z,-3.69
2023-01-29T00:13:20.058Z,-3.71
2023-01-29T00:14:20.942Z,-3.67
2023-01-29T00:15:21.837Z,-3.66
2023-01-29T00:16:22.715Z,-3.67
2023-01-29T00:17:23.653Z,-3.69
2023-01-29T00:18:24.483Z,-3.69
2023-01-29T00:19:25.379Z,-3.69
2023-01-29T00:20:26.249Z,-3.67
2023-01-29T00:21:27.146Z,-3.69
2023-01-29T00:22:28.029Z,-3.66
2023-01-29T00:23:28.916Z,-3.71
2023-01-29T00:24:29.884Z,-3.69
2023-01-29T00:25:30.736Z,-3.69
2023-01-29T00:26:31.605Z,-3.69
2023-01-29T00:27:32.490Z,-3.71
2023-01-29T00:28:33.379Z,-3.71
2023-01-29T00:29:34.266Z,-3.72
2023-01-29T00:30:35.149Z,-3.69
2023-01-29T00:31:36.180Z,-3.67
2023-01-29T00:32:36.551Z,-3.67
2023-01-29T00:33:37.440Z,-3.69
2023-01-29T00:34:38.326Z,-3.67
2023-01-29T00:35:39.206Z,-3.66
2023-01-29T00:36:40.081Z,-3.66
2023-01-29T00:37:40.965Z,-3.64
2023-01-29T00:38:41.864Z,-3.63
2023-01-29T00:39:48.102Z,-3.64
2023-01-29T00:40:44.533Z,-3.63
2023-01-29T00:41:44.397Z,-3.62
2023-01-29T00:42:45.283Z,-3.60
2023-01-29T00:43:46.180Z,-3.62
2023-01-29T00:44:47.099Z,-3.60
2023-01-29T00:45:48.033Z,-3.62
2023-01-29T00:46:48.941Z,-3.62
2023-01-29T00:47:49.806Z,-3.60
2023-01-29T00:48:50.698Z,-3.60
2023-01-29T00:49:51.579Z,-3.62
2023-01-29T00:50:52.473Z,-3.62
2023-01-29T00:51:53.358Z,-3.66
2023-01-29T00:52:54.267Z,-3.66
2023-01-29T00:53:55.164Z,-3.66
2023-01-29T00:54:56.072Z,-3.69
2023-01-29T00:55:56.995Z,-3.69
2023-01-29T00:56:57.864Z,-3.72
2023-01-29T00:57:58.732Z,-3.71
2023-01-29T00:58:59.640Z,-3.75
2023-01-29T01:00:00.532Z,-3.78
2023-01-29T01:01:01.502Z,-3.76
2023-01-29T01:02:02.427Z,-3.76
2023-01-29T01:03:03.314Z,-3.79
2023-01-29T01:04:04.231Z,-3.75
2023-01-29T01:05:05.162Z,-3.78
2023-01-29T01:06:06.032Z,-3.78
2023-01-29T01:07:06.928Z,-3.81
2023-01-29T01:08:07.836Z,-3.79
2023-01-29T01:09:08.746Z,-3.79
2023-01-29T01:10:09.641Z,-3.82
2023-01-29T01:11:10.564Z,-3.81
2023-01-29T01:12:11.438Z,-3.82
2023-01-29T01:13:12.324Z,-3.81
2023-01-29T01:14:13.219Z,-3.81
2023-01-29T01:15:14.123Z,-3.82
2023-01-29T01:16:15.020Z,-3.82
2023-01-29T01:17:15.885Z,-3.82
2023-01-29T01:18:16.764Z,-3.85
2023-01-29T01:19:17.682Z,-3.82
2023-01-29T01:20:18.819Z,-3.83
2023-01-29T01:21:19.297Z,-3.86
2023-01-29T01:22:20.184Z,-3.86
2023-01-29T01:23:21.067Z,-3.88
2023-01-29T01:24:22.016Z,-3.88
2023-01-29T01:25:22.854Z,-3.88
2023-01-29T01:26:23.752Z,-3.90
2023-01-29T01:27:24.626Z,-3.91
2023-01-29T01:28:25.503Z,-3.90
2023-01-29T01:29:26.425Z,-3.93
2023-01-29T01:30:27.276Z,-3.94
2023-01-29T01:31:28.276Z,-3.96
2023-01-29T01:32:29.118Z,-3.94
2023-01-29T01:33:29.998Z,-3.97
2023-01-29T01:34:30.893Z,-3.96
2023-01-29T01:35:31.774Z,-3.97
2023-01-29T01:36:32.658Z,-3.96
2023-01-29T01:37:33.534Z,-3.94
2023-01-29T01:38:34.424Z,-3.97
2023-01-29T01:39:35.314Z,-3.96
2023-01-29T01:40:36.200Z,-3.97
2023-01-29T01:41:37.108Z,-3.99
2023-01-29T01:42:37.963Z,-3.97
2023-01-29T01:43:38.837Z,-3.97
2023-01-29T01:44:39.749Z,-3.99
2023-01-29T01:45:40.674Z,-3.99
2023-01-29T01:46:41.513Z,-4.00
2023-01-29T01:47:42.402Z,-3.97
2023-01-29T01:48:43.283Z,-3.99
2023-01-29T01:49:44.191Z,-4.00
2023-01-29T01:50:45.068Z,-3.99
2023-01-29T01:51:45.949Z,-3.99
2023-01-29T01:52:46.844Z,-3.99
2023-01-29T01:53:47.746Z,-4.00
2023-01-29T01:54:48.661Z,-4.01
2023-01-29T01:55:49.554Z,-4.03
2023-01-29T01:56:50.474Z,-3.99
2023-01-29T01:57:51.332Z,-3.99
2023-01-29T01:58:52.244Z,-3.97
2023-01-29T01:59:53.145Z,-4.00
2023-01-29T02:00:54.046Z,-3.99
2023-01-29T02:01:54.916Z,-3.97
2023-01-29T02:02:55.795Z,-3.99
2023-01-29T02:03:56.709Z,-3.99
2023-01-29T02:04:57.591Z,-3.97
2023-01-29T02:05:58.486Z,-3.97
2023-01-29T02:06:59.357Z,-3.97
2023-01-29T02:08:00.239Z,-3.97
2023-01-29T02:09:01.126Z,-3.96
2023-01-29T02:10:02.004Z,-3.97
2023-01-29T02:11:02.889Z,-3.96
2023-01-29T02:12:03.795Z,-3.94
2023-01-29T02:13:04.656Z,-3.94
2023-01-29T02:14:05.531Z,-3.93
2023-01-29T02:15:06.424Z,-3.90
2023-01-29T02:16:07.309Z,-3.91
2023-01-29T02:17:08.230Z,-3.90
2023-01-29T02:18:09.089Z,-3.90
2023-01-29T02:19:09.975Z,-3.90
2023-01-29T02:20:10.854Z,-3.88
2023-01-29T02:21:11.734Z,-3.86
2023-01-29T02:22:12.620Z,-3.88
2023-01-29T02:23:13.502Z,-3.83
2023-01-29T02:24:14.548Z,-3.82
2023-01-29T02:25:15.001Z,-3.81
2023-01-29T02:26:15.899Z,-3.81
2023-01-29T02:27:16.824Z,-3.81
2023-01-29T02:28:17.688Z,-3.78
2023-01-29T02:29:18.573Z,-3.76
2023-01-29T02:30:19.501Z,-3.78
2023-01-29T02:31:20.498Z,-3.75
2023-01-29T02:32:20.891Z,-3.76
2023-01-29T02:33:21.786Z,-3.75
2023-01-29T02:34:22.653Z,-3.76
2023-01-29T02:35:23.560Z,-3.75
2023-01-29T02:36:24.458Z,-3.75
2023-01-29T02:37:25.319Z,-3.75
2023-01-29T02:38:26.203Z,-3.76
2023-01-29T02:39:27.084Z,-3.78
2023-01-29T02:40:27.985Z,-3.76
2023-01-29T02:41:28.868Z,-3.76
2023-01-29T02:42:29.767Z,-3.76
2023-01-29T02:43:30.629Z,-3.78
2023-01-29T02:44:31.507Z,-3.76
2023-01-29T02:45:32.425Z,-3.78
2023-01-29T02:46:33.296Z,-3.76
2023-01-29T02:47:34.192Z,-3.76
2023-01-29T02:48:35.087Z,-3.76
2023-01-29T02:49:35.998Z,-3.76
2023-01-29T02:50:36.907Z,-3.75
2023-01-29T02:51:37.799Z,-3.76
2023-01-29T02:52:38.702Z,-3.72
2023-01-29T02:53:39.608Z,-3.71
2023-01-29T02:54:40.504Z,-3.75
2023-01-29T02:55:41.411Z,-3.75
2023-01-29T02:56:42.310Z,-3.75
2023-01-29T02:57:43.230Z,-3.76
2023-01-29T02:58:44.115Z,-3.75
2023-01-29T02:59:45.002Z,-3.76
2023-01-29T03:00:45.945Z,-3.76
2023-01-29T03:01:46.799Z,-3.78
2023-01-29T03:02:47.693Z,-3.76
2023-01-29T03:03:48.592Z,-3.78
2023-01-29T03:04:49.499Z,-3.76
2023-01-29T03:05:50.405Z,-3.78
2023-01-29T03:06:51.307Z,-3.78
2023-01-29T03:07:52.207Z,-3.79
2023-01-29T03:08:53.111Z,-3.81
2023-01-29T03:09:53.989Z,-3.83
2023-01-29T03:10:54.905Z,-3.82
2023-01-29T03:11:55.790Z,-3.82
2023-01-29T03:12:56.701Z,-3.83
2023-01-29T03:13:57.600Z,-3.83
2023-01-29T03:14:58.480Z,-3.83
2023-01-29T03:15:59.372Z,-3.83
2023-01-29T03:17:00.256Z,-3.85
2023-01-29T03:18:01.129Z,-3.85
2023-01-29T03:19:02.021Z,-3.86
2023-01-29T03:20:02.895Z,-3.86
2023-01-29T03:21:03.787Z,-3.90
2023-01-29T03:22:04.679Z,-3.88
2023-01-29T03:23:05.546Z,-3.91
2023-01-29T03:24:06.528Z,-3.91
2023-01-29T03:25:07.370Z,-3.90
2023-01-29T03:26:08.263Z,-3.88
2023-01-29T03:27:09.145Z,-3.91
2023-01-29T03:28:10.056Z,-3.90
2023-01-29T03:29:10.911Z,-3.91
2023-01-29T03:30:11.801Z,-3.91
2023-01-29T03:31:12.739Z,-3.91
2023-01-29T03:32:13.633Z,-3.90
2023-01-29T03:33:14.475Z,-3.91
2023-01-29T03:34:15.367Z,-3.90
2023-01-29T03:35:16.242Z,-3.90
2023-01-29T03:36:17.159Z,-3.91
2023-01-29T03:37:18.019Z,-3.93
2023-01-29T03:38:18.906Z,-3.94
2023-01-29T03:39:19.785Z,-3.97
2023-01-29T03:40:20.667Z,-4.00
2023-01-29T03:41:21.566Z,-4.01
2023-01-29T03:42:22.451Z,-4.01
2023-01-29T03:43:23.349Z,-4.03
2023-01-29T03:44:24.211Z,-4.03
2023-01-29T03:45:25.091Z,-4.04
2023-01-29T03:46:25.987Z,-4.04
2023-01-29T03:47:26.875Z,-4.06
2023-01-29T03:48:27.764Z,-4.03
2023-01-29T03:49:28.638Z,-4.06
2023-01-29T03:50:29.530Z,-4.06
2023-01-29T03:51:30.414Z,-4.04
2023-01-29T03:52:31.298Z,-4.07
2023-01-29T03:53:32.184Z,-4.07
2023-01-29T03:54:33.065Z,-4.11
2023-01-29T03:55:33.957Z,-4.12
2023-01-29T03:56:34.880Z,-4.14
2023-01-29T03:57:35.764Z,-4.17
2023-01-29T03:58:36.664Z,-4.17
2023-01-29T03:59:37.526Z,-4.18
2023-01-29T04:00:38.446Z,-4.22
2023-01-29T04:01:39.371Z,-4.25
2023-01-29T04:02:40.242Z,-4.28
2023-01-29T04:03:41.108Z,-4.30
2023-01-29T04:04:42.005Z,-4.30
2023-01-29T04:05:42.884Z,-4.30
2023-01-29T04:06:43.780Z,-4.33
2023-01-29T04:07:44.661Z,-4.32
2023-01-29T04:08:45.544Z,-4.33
2023-01-29T04:09:46.446Z,-4.35
2023-01-29T04:10:47.323Z,-4.35
2023-01-29T04:11:48.221Z,-4.35
2023-01-29T04:12:49.110Z,-4.36
2023-01-29T04:13:49.984Z,-4.38
2023-01-29T04:14:50.868Z,-4.40
2023-01-29T04:15:51.749Z,-4.40
2023-01-29T04:16:52.646Z,-4.42
2023-01-29T04:17:53.515Z,-4.43
2023-01-29T04:18:54.422Z,-4.42
2023-01-29T04:19:55.293Z,-4.43
2023-01-29T04:20:56.178Z,-4.46
2023-01-29T04:21:57.069Z,-4.47
2023-01-29T04:22:57.953Z,-4.46
2023-01-29T04:23:58.946Z,-4.46
2023-01-29T04:24:59.795Z,-4.46
2023-01-29T04:26:00.666Z,-4.46
2023-01-29T04:27:01.560Z,-4.47
2023-01-29T04:28:02.442Z,-4.47
2023-01-29T04:29:03.323Z,-4.46
2023-01-29T04:30:04.219Z,-4.47
2023-01-29T04:31:05.377Z,-4.46
2023-01-29T04:32:05.871Z,-4.46
2023-01-29T04:33:06.759Z,-4.47
2023-01-29T04:34:07.620Z,-4.49
2023-01-29T04:35:08.508Z,-4.49
2023-01-29T04:36:09.387Z,-4.47
2023-01-29T04:37:10.285Z,-4.47
2023-01-29T04:38:11.168Z,-4.49
2023-01-29T04:39:12.164Z,-4.49
2023-01-29T04:40:12.994Z,-4.50
2023-01-29T04:41:13.881Z,-4.50
2023-01-29T04:42:14.793Z,-4.50
2023-01-29T04:43:15.682Z,-4.50
2023-01-29T04:44:16.595Z,-4.50
2023-01-29T04:45:17.485Z,-4.50
2023-01-29T04:46:18.394Z,-4.50
2023-01-29T04:47:19.364Z,-4.49
2023-01-29T04:48:20.250Z,-4.50
2023-01-29T04:49:21.121Z,-4.49
2023-01-29T04:50:22.005Z,-4.49
2023-01-29T04:51:22.901Z,-4.47
2023-01-29T04:52:23.799Z,-4.49
2023-01-29T04:53:24.691Z,-4.51
2023-01-29T04:54:25.573Z,-4.51
2023-01-29T04:55:26.475Z,-4.51
2023-01-29T04:56:27.338Z,-4.53
2023-01-29T04:57:28.248Z,-4.56
2023-01-29T04:58:29.137Z,-4.58
2023-01-29T04:59:30.022Z,-4.58
2023-01-29T05:00:30.909Z,-4.61
2023-01-29T05:01:31.802Z,-4.60
2023-01-29T05:02:32.717Z,-4.65
2023-01-29T05:03:33.593Z,-4.67
2023-01-29T05:04:34.472Z,-4.67
2023-01-29T05:05:35.362Z,-4.68
2023-01-29T05:06:36.242Z,-4.69
2023-01-29T05:07:37.134Z,-4.69
2023-01-29T05:08:38.016Z,-4.72
2023-01-29T05:09:38.906Z,-4.74
2023-01-29T05:10:39.787Z,-4.74
2023-01-29T05:11:40.668Z,-4.77
2023-01-29T05:12:41.573Z,-4.77
2023-01-29T05:13:42.437Z,-4.79
2023-01-29T05:14:43.330Z,-4.83
2023-01-29T05:15:44.262Z,-4.85
2023-01-29T05:16:45.098Z,-4.85
2023-01-29T05:17:45.988Z,-4.90
2023-01-29T05:18:46.890Z,-4.87
2023-01-29T05:19:47.772Z,-4.92
2023-01-29T05:20:48.637Z,-4.92
2023-01-29T05:21:49.519Z,-4.93
2023-01-29T05:22:50.410Z,-4.95
2023-01-29T05:23:51.284Z,-4.95
2023-01-29T05:24:52.167Z,-4.96
2023-01-29T05:25:53.041Z,-4.95
2023-01-29T05:26:53.923Z,-4.96
2023-01-29T05:27:54.820Z,-4.99
2023-01-29T05:28:56.361Z,-4.97
2023-01-29T05:29:56.685Z,-4.97
2023-01-29T05:30:57.763Z,-4.99
2023-01-29T05:31:58.168Z,-5.00
2023-01-29T05:32:59.027Z,-5.00
2023-01-29T05:33:59.913Z,-5.00
2023-01-29T05:35:00.798Z,-5.06
2023-01-29T05:36:01.679Z,-5.03
2023-01-29T05:37:02.562Z,-5.03
2023-01-29T05:38:03.458Z,-5.03
2023-01-29T05:39:04.338Z,-5.00
2023-01-29T05:40:05.207Z,-5.00
2023-01-29T05:41:06.135Z,-5.03
2023-01-29T05:42:07.026Z,-5.00
2023-01-29T05:43:07.910Z,-5.07
2023-01-29T05:44:08.785Z,-5.06
2023-01-29T05:45:09.696Z,-5.06
2023-01-29T05:46:10.541Z,-5.06
2023-01-29T05:47:11.423Z,-5.08
2023-01-29T05:48:12.406Z,-5.10
2023-01-29T05:49:13.291Z,-5.10
2023-01-29T05:50:14.306Z,-5.14
2023-01-29T05:51:14.721Z,-5.14
2023-01-29T05:52:15.619Z,-5.17
2023-01-29T05:53:16.530Z,-5.22
2023-01-29T05:54:17.429Z,-5.18
2023-01-29T05:55:18.331Z,-5.25
2023-01-29T05:56:19.226Z,-5.26
2023-01-29T05:57:20.129Z,-5.25
2023-01-29T05:58:20.999Z,-5.27
2023-01-29T05:59:21.885Z,-5.30
2023-01-29T06:00:22.769Z,-5.30
2023-01-29T06:01:23.653Z,-5.29
2023-01-29T06:02:24.539Z,-5.33
2023-01-29T06:03:25.431Z,-5.33
2023-01-29T06:04:26.304Z,-5.33
2023-01-29T06:05:27.189Z,-5.35
2023-01-29T06:06:28.057Z,-5.36
2023-01-29T06:07:28.940Z,-5.37
2023-01-29T06:08:29.825Z,-5.39
2023-01-29T06:09:30.716Z,-5.44
2023-01-29T06:10:31.597Z,-5.46
2023-01-29T06:11:32.484Z,-5.50
2023-01-29T06:12:33.369Z,-5.48
2023-01-29T06:13:34.253Z,-5.53
2023-01-29T06:14:35.136Z,-5.55
2023-01-29T06:15:36.019Z,-5.59
2023-01-29T06:16:36.853Z,-5.61
2023-01-29T06:17:37.736Z,-5.64
2023-01-29T06:18:38.607Z,-5.69
2023-01-29T06:19:39.443Z,-5.71
2023-01-29T06:20:40.327Z,-5.69
2023-01-29T06:21:41.232Z,-5.74
2023-01-29T06:22:42.118Z,-5.76
2023-01-29T06:23:43.016Z,-5.76
2023-01-29T06:24:43.917Z,-5.80
2023-01-29T06:25:44.734Z,-5.83
2023-01-29T06:26:45.560Z,-5.84
2023-01-29T06:27:46.392Z,-5.86
2023-01-29T06:28:47.226Z,-5.87
2023-01-29T06:29:48.056Z,-5.90
2023-01-29T06:30:48.900Z,-5.92
2023-01-29T06:31:49.847Z,-5.93
2023-01-29T06:32:50.696Z,-5.93
2023-01-29T06:33:51.543Z,-5.98
2023-01-29T06:34:52.358Z,-5.98
2023-01-29T06:35:53.209Z,-5.97
2023-01-29T06:36:54.042Z,-6.00
2023-01-29T06:37:54.874Z,-6.03
2023-01-29T06:38:55.720Z,-6.05
2023-01-29T06:39:56.540Z,-6.10
2023-01-29T06:40:57.364Z,-6.11
2023-01-29T06:41:58.199Z,-6.13
2023-01-29T06:42:59.023Z,-6.13
2023-01-29T06:43:59.863Z,-6.15
2023-01-29T06:45:00.692Z,-6.15
2023-01-29T06:46:01.682Z,-6.15
2023-01-29T06:47:02.481Z,-6.16
2023-01-29T06:48:03.311Z,-6.16
2023-01-29T06:49:04.154Z,-6.19
2023-01-29T06:50:04.979Z,-6.18
2023-01-29T06:51:05.820Z,-6.22
2023-01-29T06:52:06.646Z,-6.23
2023-01-29T06:53:07.470Z,-6.23
2023-01-29T06:54:08.320Z,-6.23
2023-01-29T06:55:09.142Z,-6.28
2023-01-29T06:56:09.974Z,-6.28
2023-01-29T06:57:10.807Z,-6.31
2023-01-29T06:58:11.635Z,-6.31
2023-01-29T06:59:12.476Z,-6.34
2023-01-29T07:00:13.304Z,-6.34
2023-01-29T07:01:29.308Z,-6.36
2023-01-29T07:02:15.895Z,-6.39
2023-01-29T07:03:15.672Z,-6.42
2023-01-29T07:04:16.508Z,-6.42
2023-01-29T07:05:17.339Z,-6.42
2023-01-29T07:06:18.183Z,-6.49
2023-01-29T07:07:19.026Z,-6.50
2023-01-29T07:08:19.837Z,-6.58
2023-01-29T07:09:20.676Z,-6.61
2023-01-29T07:10:21.514Z,-6.54
2023-01-29T07:11:22.338Z,-6.58
2023-01-29T07:12:23.160Z,-6.55
2023-01-29T07:13:23.986Z,-6.55
2023-01-29T07:14:24.834Z,-6.55
2023-01-29T07:15:25.653Z,-6.55
2023-01-29T07:16:26.739Z,-6.58
2023-01-29T07:17:27.089Z,-6.58
2023-01-29T07:18:27.917Z,-6.61
2023-01-29T07:19:28.745Z,-6.62
2023-01-29T07:20:29.586Z,-6.62
2023-01-29T07:21:30.399Z,-6.65
2023-01-29T07:22:31.251Z,-6.68
2023-01-29T07:23:32.064Z,-6.68
2023-01-29T07:24:33.004Z,-6.69
2023-01-29T07:25:33.796Z,-6.74
2023-01-29T07:26:34.626Z,-6.73
2023-01-29T07:27:35.456Z,-6.76
2023-01-29T07:28:36.286Z,-6.74
2023-01-29T07:29:37.128Z,-6.76
2023-01-29T07:30:37.960Z,-6.76
2023-01-29T07:31:38.930Z,-6.77
2023-01-29T07:32:39.742Z,-6.76
2023-01-29T07:33:40.575Z,-6.79
2023-01-29T07:34:41.419Z,-6.79
2023-01-29T07:35:42.252Z,-6.79
2023-01-29T07:36:43.089Z,-6.77
2023-01-29T07:37:43.913Z,-6.77
2023-01-29T07:38:44.738Z,-6.74
2023-01-29T07:39:45.684Z,-6.71
2023-01-29T07:40:46.517Z,-6.74
2023-01-29T07:41:47.343Z,-6.76
2023-01-29T07:42:48.173Z,-6.74
2023-01-29T07:43:49.007Z,-6.74
2023-01-29T07:44:49.846Z,-6.74
2023-01-29T07:45:50.692Z,-6.74
2023-01-29T07:46:51.526Z,-6.76
2023-01-29T07:47:52.358Z,-6.73
2023-01-29T07:48:53.197Z,-6.74
2023-01-29T07:49:54.037Z,-6.73
2023-01-29T07:50:54.869Z,-6.74
2023-01-29T07:51:55.696Z,-6.73
2023-01-29T07:52:56.535Z,-6.71
2023-01-29T07:53:57.372Z,-6.69
2023-01-29T07:54:58.187Z,-6.71
2023-01-29T07:55:59.020Z,-6.71
2023-01-29T07:56:59.852Z,-6.71
2023-01-29T07:58:00.688Z,-6.71
2023-01-29T07:59:01.512Z,-6.69
2023-01-29T08:00:02.355Z,-6.71
2023-01-29T08:01:03.218Z,-6.71
2023-01-29T08:02:04.025Z,-6.73
2023-01-29T08:03:04.830Z,-6.73
2023-01-29T08:04:05.659Z,-6.76
2023-01-29T08:05:06.496Z,-6.79
2023-01-29T08:06:07.324Z,-6.79
2023-01-29T08:07:08.170Z,-6.82
2023-01-29T08:08:09.018Z,-6.83
2023-01-29T08:09:09.834Z,-6.83
2023-01-29T08:10:10.675Z,-6.83
2023-01-29T08:11:11.524Z,-6.86
2023-01-29T08:12:12.332Z,-6.82
2023-01-29T08:13:13.170Z,-6.83
2023-01-29T08:14:13.989Z,-6.84
2023-01-29T08:15:14.826Z,-6.82
2023-01-29T08:16:15.748Z,-6.80
2023-01-29T08:17:16.570Z,-6.86
2023-01-29T08:18:17.400Z,-6.83
2023-01-29T08:19:18.239Z,-6.84
2023-01-29T08:20:19.416Z,-6.82
2023-01-29T08:21:19.868Z,-6.83
2023-01-29T08:22:20.679Z,-6.82
2023-01-29T08:23:21.523Z,-6.84
2023-01-29T08:24:22.371Z,-6.86
2023-01-29T08:25:23.538Z,-6.87
2023-01-29T08:26:24.015Z,-6.84
2023-01-29T08:27:24.831Z,-6.86
2023-01-29T08:28:25.665Z,-6.86
2023-01-29T08:29:26.489Z,-6.87
2023-01-29T08:30:27.361Z,-6.84
2023-01-29T08:31:28.180Z,-6.80
2023-01-29T08:32:28.993Z,-6.77
2023-01-29T08:33:38.313Z,-6.76
2023-01-29T08:34:31.530Z,-6.74
2023-01-29T08:35:31.365Z,-6.71
2023-01-29T08:36:32.209Z,-6.65
2023-01-29T08:37:33.172Z,-6.61
2023-01-29T08:38:34.021Z,-6.55
2023-01-29T08:39:34.843Z,-6.54
2023-01-29T08:40:35.686Z,-6.47
2023-01-29T08:41:36.513Z,-6.42
2023-01-29T08:42:37.342Z,-6.34
2023-01-29T08:43:38.168Z,-6.29
2023-01-29T08:44:38.992Z,-6.21
2023-01-29T08:45:40.021Z,-6.18
2023-01-29T08:46:40.383Z,-6.13
2023-01-29T08:47:41.212Z,-6.10
2023-01-29T08:48:42.040Z,-6.07
2023-01-29T08:49:42.873Z,-6.05
2023-01-29T08:50:43.712Z,-6.04
2023-01-29T08:51:44.546Z,-5.98
2023-01-29T08:52:45.378Z,-6.00
2023-01-29T08:53:46.198Z,-5.94
2023-01-29T08:54:47.046Z,-5.92
2023-01-29T08:55:47.867Z,-5.89
2023-01-29T08:56:48.815Z,-5.87
2023-01-29T08:57:49.665Z,-5.84
2023-01-29T08:58:50.548Z,-5.80
2023-01-29T08:59:51.346Z,-5.76
2023-01-29T09:00:52.242Z,-5.75
2023-01-29T09:01:53.024Z,-5.72
2023-01-29T09:02:53.849Z,-5.69
2023-01-29T09:03:54.679Z,-5.66
2023-01-29T09:04:55.509Z,-5.61
2023-01-29T09:05:56.340Z,-5.55
2023-01-29T09:06:57.186Z,-5.50
2023-01-29T09:07:58.007Z,-5.41
2023-01-29T09:08:58.858Z,-5.36
2023-01-29T09:09:59.704Z,-5.29
2023-01-29T09:11:00.510Z,-5.22
2023-01-29T09:12:01.347Z,-5.14
2023-01-29T09:13:02.189Z,-5.06
2023-01-29T09:14:02.987Z,-4.99
2023-01-29T09:15:03.828Z,-4.96
2023-01-29T09:16:04.653Z,-4.93
2023-01-29T09:17:05.506Z,-4.86
2023-01-29T09:18:06.325Z,-4.78
2023-01-29T09:19:07.146Z,-4.74
2023-01-29T09:20:07.974Z,-4.68
2023-01-29T09:21:08.817Z,-4.61
2023-01-29T09:22:11.765Z,-4.58
2023-01-29T09:23:10.221Z,-4.54
2023-01-29T09:24:11.058Z,-4.49
2023-01-29T09:25:11.890Z,-4.43
2023-01-29T09:26:12.737Z,-4.38
2023-01-29T09:27:13.574Z,-4.33
2023-01-29T09:28:14.370Z,-4.32
2023-01-29T09:29:15.200Z,-4.25
2023-01-29T09:30:16.036Z,-4.21
2023-01-29T09:31:17.090Z,-4.18
2023-01-29T09:32:37.661Z,-4.15
2023-01-29T09:33:19.627Z,-4.10
2023-01-29T09:34:19.455Z,-4.04
2023-01-29T09:35:20.285Z,-4.03
2023-01-29T09:36:21.128Z,-3.99
2023-01-29T09:37:22.133Z,-3.97
2023-01-29T09:38:22.983Z,-3.94
2023-01-29T09:39:23.778Z,-3.91
2023-01-29T09:40:24.609Z,-3.86
2023-01-29T09:41:25.451Z,-3.85
2023-01-29T09:42:26.284Z,-3.82
2023-01-29T09:43:27.120Z,-3.85
2023-01-29T09:44:27.940Z,-3.83
2023-01-29T09:45:28.772Z,-3.79
2023-01-29T09:46:29.625Z,-3.78
2023-01-29T09:47:30.454Z,-3.75
2023-01-29T09:48:31.302Z,-3.76
2023-01-29T09:49:32.126Z,-3.75
2023-01-29T09:50:32.956Z,-3.76
2023-01-29T09:51:33.802Z,-3.76
2023-01-29T09:52:34.635Z,-3.72
2023-01-29T09:53:35.473Z,-3.72
2023-01-29T09:54:36.293Z,-3.69
2023-01-29T09:55:37.121Z,-3.66
2023-01-29T09:56:37.960Z,-3.60
2023-01-29T09:57:38.818Z,-3.56
2023-01-29T09:58:39.639Z,-3.54
2023-01-29T09:59:40.460Z,-3.49
2023-01-29T10:00:41.313Z,-3.48
2023-01-29T10:01:42.237Z,-3.43
2023-01-29T10:02:43.052Z,-3.42
2023-01-29T10:03:43.886Z,-3.38
2023-01-29T10:04:44.829Z,-3.38
2023-01-29T10:05:45.676Z,-3.35
2023-01-29T10:06:46.502Z,-3.31
2023-01-29T10:07:47.339Z,-3.33
2023-01-29T10:08:48.178Z,-3.30
2023-01-29T10:09:48.999Z,-3.30
2023-01-29T10:10:49.854Z,-3.30
2023-01-29T10:11:50.688Z,-3.27
2023-01-29T10:12:51.517Z,-3.27
2023-01-29T10:13:52.348Z,-3.23
2023-01-29T10:14:53.185Z,-3.18
2023-01-29T10:15:54.021Z,-3.14
2023-01-29T10:16:54.914Z,-3.10
2023-01-29T10:17:55.735Z,-3.07
2023-01-29T10:18:56.552Z,-3.05
2023-01-29T10:19:57.394Z,-3.02
2023-01-29T10:20:58.233Z,-2.97
2023-01-29T10:21:59.084Z,-2.96
2023-01-29T10:22:59.913Z,-2.92
2023-01-29T10:24:00.745Z,-2.89
2023-01-29T10:25:01.578Z,-2.85
2023-01-29T10:26:02.410Z,-2.81
2023-01-29T10:27:03.241Z,-2.78
2023-01-29T10:28:04.083Z,-2.68
2023-01-29T10:29:04.911Z,-2.64
2023-01-29T10:30:05.735Z,-2.60
2023-01-29T10:31:06.613Z,-2.55
2023-01-29T10:32:07.542Z,-2.50
2023-01-29T10:33:07.930Z,-2.50
2023-01-29T10:34:08.772Z,-2.43
2023-01-29T10:35:09.593Z,-2.43
2023-01-29T10:36:10.426Z,-2.40
2023-01-29T10:37:11.276Z,-2.37
2023-01-29T10:38:12.121Z,-2.32
2023-01-29T10:39:12.933Z,-2.27
2023-01-29T10:40:13.753Z,-2.24
2023-01-29T10:41:14.589Z,-2.18
2023-01-29T10:42:15.449Z,-2.12
2023-01-29T10:43:16.285Z,-2.06
2023-01-29T10:44:17.112Z,-2.02
2023-01-29T10:45:18.506Z,-2.00
2023-01-29T10:46:18.533Z,-1.97
2023-01-29T10:47:19.417Z,-1.94
2023-01-29T10:48:20.197Z,-1.90
2023-01-29T10:49:21.038Z,-1.88
2023-01-29T10:50:21.859Z,-1.84
2023-01-29T10:51:22.695Z,-1.80
2023-01-29T10:52:23.531Z,-1.74
2023-01-29T10:53:24.367Z,-1.70
2023-01-29T10:54:25.201Z,-1.69
2023-01-29T10:55:26.031Z,-1.59
2023-01-29T10:56:26.871Z,-1.55
2023-01-29T10:57:27.709Z,-1.51
2023-01-29T10:58:28.538Z,-1.45
2023-01-29T10:59:29.375Z,-1.40
2023-01-29T11:00:30.200Z,-1.38
2023-01-29T11:01:31.046Z,-1.35
2023-01-29T11:02:31.908Z,-1.31
2023-01-29T11:03:32.721Z,-1.30
2023-01-29T11:04:33.538Z,-1.25
2023-01-29T11:05:34.384Z,-1.22
2023-01-29T11:06:35.210Z,-1.19
2023-01-29T11:07:36.064Z,-1.15
2023-01-29T11:08:36.899Z,-1.09
2023-01-29T11:09:37.726Z,-1.05
2023-01-29T11:10:38.555Z,-1.01
2023-01-29T11:11:39.384Z,-0.97
2023-01-29T11:12:40.223Z,-0.91
2023-01-29T11:13:41.062Z,-0.85
2023-01-29T11:14:41.888Z,-0.78
2023-01-29T11:15:42.729Z,-0.79
2023-01-29T11:16:43.644Z,-0.76
2023-01-29T11:17:44.488Z,-0.73
2023-01-29T11:18:45.338Z,-0.70
2023-01-29T11:19:46.172Z,-0.64
2023-01-29T11:20:46.997Z,-0.62
2023-01-29T11:21:47.833Z,-0.60
2023-01-29T11:22:48.681Z,-0.57
2023-01-29T11:23:49.510Z,-0.57
2023-01-29T11:24:50.344Z,-0.51
2023-01-29T11:25:51.177Z,-0.49
2023-01-29T11:26:52.004Z,-0.43
2023-01-29T11:27:52.851Z,-0.42
2023-01-29T11:28:53.673Z,-0.39
2023-01-29T11:29:54.511Z,-0.34
2023-01-29T11:30:55.440Z,-0.31
2023-01-29T11:31:56.325Z,-0.28
2023-01-29T11:32:57.171Z,-0.23
2023-01-29T11:33:58.002Z,-0.23
2023-01-29T11:34:58.845Z,-0.19
2023-01-29T11:35:59.658Z,-0.15
2023-01-29T11:37:00.475Z,-0.11
2023-01-29T11:38:01.320Z,-0.10
2023-01-29T11:39:02.153Z,-0.04
2023-01-29T11:40:02.996Z,-0.01
2023-01-29T11:41:03.814Z,0.00
2023-01-29T11:42:04.663Z,0.03
2023-01-29T11:43:05.491Z,0.03
2023-01-29T11:44:06.317Z,0.04
2023-01-29T11:45:07.135Z,0.07
2023-01-29T11:46:08.003Z,0.04
2023-01-29T11:47:08.798Z,0.04
2023-01-29T11:48:09.640Z,0.04
2023-01-29T11:49:20.593Z,0.03
2023-01-29T11:50:12.189Z,0.02
2023-01-29T11:51:12.030Z,-0.01
2023-01-29T11:52:12.866Z,-0.07
2023-01-29T11:53:13.690Z,-0.08
2023-01-29T11:54:14.528Z,-0.16
2023-01-29T11:55:15.350Z,-0.16
2023-01-29T11:56:16.181Z,-0.19
2023-01-29T11:57:19.240Z,-0.16
2023-01-29T11:58:17.747Z,-0.21
2023-01-29T11:59:18.506Z,-0.19
2023-01-29T12:00:19.774Z,-0.22
2023-01-29T12:01:20.213Z,-0.21
2023-01-29T12:02:21.039Z,-0.21
2023-01-29T12:03:24.781Z,-0.22
2023-01-29T12:04:22.807Z,-0.23
2023-01-29T12:05:23.637Z,-0.23
2023-01-29T12:06:24.470Z,-0.23
2023-01-29T12:07:25.318Z,-0.23
2023-01-29T12:08:26.134Z,-0.26
2023-01-29T12:09:26.964Z,-0.26
2023-01-29T12:10:27.784Z,-0.28
2023-01-29T12:11:28.609Z,-0.31
2023-01-29T12:12:29.453Z,-0.29
2023-01-29T12:13:30.287Z,-0.31
2023-01-29T12:14:31.109Z,-0.31
2023-01-29T12:15:31.938Z,-0.28
2023-01-29T12:16:32.848Z,-0.29
2023-01-29T12:17:33.636Z,-0.28
2023-01-29T12:18:34.499Z,-0.23
2023-01-29T12:19:35.331Z,-0.25
2023-01-29T12:20:36.155Z,-0.21
2023-01-29T12:21:36.987Z,-0.18
2023-01-29T12:22:37.827Z,-0.16
2023-01-29T12:23:38.668Z,-0.16
2023-01-29T12:24:39.491Z,-0.14
2023-01-29T12:25:40.320Z,-0.11
2023-01-29T12:26:41.181Z,-0.11
2023-01-29T12:27:42.117Z,-0.08
2023-01-29T12:28:42.905Z,-0.10
2023-01-29T12:29:43.735Z,-0.08
2023-01-29T12:30:44.579Z,-0.10
2023-01-29T12:31:45.437Z,-0.11
2023-01-29T12:32:46.228Z,-0.11
2023-01-29T12:33:47.087Z,-0.15
2023-01-29T12:34:47.915Z,-0.15
2023-01-29T12:35:48.737Z,-0.10
2023-01-29T12:36:49.568Z,-0.08
2023-01-29T12:37:50.486Z,-0.08
2023-01-29T12:38:51.325Z,-0.07
2023-01-29T12:39:52.158Z,-0.05
2023-01-29T12:40:52.988Z,-0.05
2023-01-29T12:41:53.804Z,-0.03
2023-01-29T12:42:54.646Z,-0.01
2023-01-29T12:43:55.486Z,0.02
2023-01-29T12:44:56.324Z,0.00
2023-01-29T12:45:57.144Z,0.02
2023-01-29T12:46:58.018Z,0.03
2023-01-29T12:47:58.805Z,0.07
2023-01-29T12:48:59.650Z,0.04
2023-01-29T12:50:00.482Z,0.10
2023-01-29T12:51:01.313Z,0.11
2023-01-29T12:52:02.129Z,0.13
2023-01-29T12:53:02.968Z,0.14
2023-01-29T12:54:03.810Z,0.15
2023-01-29T12:55:04.644Z,0.18
2023-01-29T12:56:05.469Z,0.21
2023-01-29T12:57:06.298Z,0.23
2023-01-29T12:58:07.129Z,0.28
2023-01-29T12:59:07.966Z,0.29
2023-01-29T13:00:08.834Z,0.33
2023-01-29T13:01:09.698Z,0.38
2023-01-29T13:02:10.510Z,0.41
2023-01-29T13:03:11.430Z,0.46
2023-01-29T13:04:12.223Z,0.49